Time;durP1;ratioP1;P1;durP2;ratioP2;P2;SDS_P1;SDS_P2;PMS_P1;PMS_P2;Temp;Humidity;BMP_temperature;BMP_pressure;BME280_temperature;BME280_humidity;BME280_pressure;Samples;Min_cycle;Max_cycle;Signal;HPM_P1;HPM_P2
2022/11/20 00:00:37;;;;;;;4.20;2.83;;;-3.60;99.90;;;;;;5038003;28;20457;-87
2022/11/20 00:03:02;;;;;;;3.55;3.22;;;-3.60;99.90;;;;;;5029190;28;20026;-85
2022/11/20 00:05:28;;;;;;;3.58;2.88;;;-3.60;99.90;;;;;;5045065;28;20017;-86
2022/11/20 00:07:53;;;;;;;5.68;3.90;;;-3.60;99.90;;;;;;5045488;28;20024;-86
2022/11/20 00:10:19;;;;;;;7.20;3.47;;;-3.50;99.90;;;;;;5044606;28;20036;-86
2022/11/20 00:12:45;;;;;;;4.13;3.15;;;-3.60;99.90;;;;;;5036804;28;20095;-87
2022/11/20 00:15:10;;;;;;;5.60;3.58;;;-3.50;99.90;;;;;;5036850;28;20033;-85
2022/11/20 00:17:36;;;;;;;5.53;3.70;;;-3.50;99.90;;;;;;5040879;28;20477;-84
2022/11/20 00:20:01;;;;;;;3.80;3.28;;;-3.50;99.90;;;;;;5039257;28;20036;-86
2022/11/20 00:22:27;;;;;;;5.32;3.60;;;-3.50;99.90;;;;;;5036054;28;20032;-86
2022/11/20 00:24:53;;;;;;;3.95;2.97;;;-3.50;99.90;;;;;;5038985;28;20462;-86
2022/11/20 00:27:18;;;;;;;4.40;2.88;;;-3.50;99.90;;;;;;5035510;28;20029;-85
2022/11/20 00:29:44;;;;;;;3.75;3.05;;;-3.50;99.90;;;;;;5037808;28;20049;-86
2022/11/20 00:32:09;;;;;;;3.53;2.85;;;-3.50;99.90;;;;;;5035279;28;20071;-86
2022/11/20 00:34:35;;;;;;;4.00;3.40;;;-3.50;99.90;;;;;;5043243;28;20056;-85
2022/11/20 00:37:01;;;;;;;4.75;3.33;;;-3.50;99.90;;;;;;5041937;28;20108;-86
2022/11/20 00:39:27;;;;;;;6.32;3.45;;;-3.60;99.90;;;;;;5034942;28;20029;-82
2022/11/20 00:41:53;;;;;;;3.35;3.05;;;-3.60;99.90;;;;;;5038099;28;20033;-86
2022/11/20 00:44:18;;;;;;;3.55;2.90;;;-3.60;99.90;;;;;;5037554;28;20025;-85
2022/11/20 00:46:44;;;;;;;7.72;3.83;;;-3.60;99.90;;;;;;5044267;28;20359;-86
2022/11/20 00:49:09;;;;;;;7.88;3.78;;;-3.70;99.90;;;;;;5048046;28;20052;-86
2022/11/20 00:51:35;;;;;;;5.82;3.20;;;-3.70;99.90;;;;;;5024888;28;20033;-85
2022/11/20 00:54:01;;;;;;;4.95;2.95;;;-3.70;99.90;;;;;;5040772;28;20038;-86
2022/11/20 00:56:28;;;;;;;5.28;3.65;;;-3.80;99.90;;;;;;5041708;28;20060;-86
2022/11/20 00:58:54;;;;;;;4.22;3.55;;;-3.80;99.90;;;;;;5042766;28;20021;-85
2022/11/20 01:01:25;;;;;;;4.30;3.45;;;-3.80;99.90;;;;;;5036732;28;20479;-85
2022/11/20 01:03:53;;;;;;;5.60;3.85;;;-3.80;99.90;;;;;;5042677;28;20094;-84
2022/11/20 01:06:23;;;;;;;5.70;3.58;;;-3.80;99.90;;;;;;5039976;28;20139;-86
2022/11/20 01:08:51;;;;;;;7.15;4.15;;;-3.80;99.90;;;;;;5038234;28;20025;-86
2022/11/20 01:11:19;;;;;;;5.70;4.15;;;-3.80;99.90;;;;;;5038019;28;20071;-86
2022/11/20 01:13:48;;;;;;;9.88;4.22;;;-3.90;99.90;;;;;;5041971;28;20021;-86
2022/11/20 01:16:16;;;;;;;8.23;3.90;;;-3.90;99.90;;;;;;5043533;28;20029;-86
2022/11/20 01:18:45;;;;;;;7.32;4.25;;;-3.80;99.90;;;;;;5041873;28;20025;-86
2022/11/20 01:21:23;;;;;;;4.75;3.83;;;-3.80;99.90;;;;;;5042579;28;20021;-86
2022/11/20 01:23:49;;;;;;;5.10;3.97;;;-3.80;99.90;;;;;;5029603;28;20025;-84
2022/11/20 01:26:21;;;;;;;9.00;4.18;;;-3.80;99.90;;;;;;5030908;28;20021;-86
2022/11/20 01:28:48;;;;;;;7.40;4.30;;;-3.80;99.90;;;;;;5034973;28;20490;-85
2022/11/20 01:31:17;;;;;;;5.15;4.28;;;-3.80;99.90;;;;;;5039381;28;20055;-85
2022/11/20 01:33:44;;;;;;;7.88;3.55;;;-3.80;99.90;;;;;;5035905;28;20024;-84
2022/11/20 01:36:10;;;;;;;4.70;3.47;;;-3.80;99.90;;;;;;5031879;28;20025;-85
2022/11/20 01:38:36;;;;;;;4.90;3.65;;;-3.80;99.90;;;;;;5036256;28;20111;-85
2022/11/20 01:41:02;;;;;;;5.43;3.53;;;-3.80;99.90;;;;;;5036399;28;20036;-85
2022/11/20 01:43:28;;;;;;;4.50;2.75;;;-3.80;99.90;;;;;;5039068;28;20024;-85
2022/11/20 01:46:17;;;;;;;7.25;3.50;;;-3.70;99.90;;;;;;5039437;28;20421;-85
2022/11/20 01:49:07;;;;;;;3.45;2.92;;;-3.70;99.90;;;;;;5036436;28;20029;-84
2022/11/20 01:51:53;;;;;;;4.15;3.35;;;-3.70;99.90;;;;;;5030462;28;20076;-84
2022/11/20 01:54:25;;;;;;;3.47;3.10;;;-3.70;99.90;;;;;;5033883;28;20059;-86
2022/11/20 01:56:53;;;;;;;3.50;2.83;;;-3.70;99.90;;;;;;5031861;28;20040;-81
2022/11/20 01:59:21;;;;;;;3.67;3.05;;;-3.70;99.90;;;;;;5028976;28;20083;-84
2022/11/20 02:01:47;;;;;;;6.13;2.78;;;-3.60;99.90;;;;;;5034467;28;20041;-85
2022/11/20 02:04:14;;;;;;;2.90;2.53;;;-3.70;99.90;;;;;;5039634;28;20005;-85
2022/11/20 02:06:47;;;;;;;2.75;2.55;;;-3.60;99.90;;;;;;5034153;28;20028;-86
2022/11/20 02:09:14;;;;;;;2.70;2.50;;;-3.60;99.90;;;;;;5029260;28;20029;-85
2022/11/20 02:11:39;;;;;;;2.60;2.40;;;-3.60;99.90;;;;;;5037997;28;20133;-85
2022/11/20 02:14:05;;;;;;;3.67;2.92;;;-3.70;99.90;;;;;;5043017;28;20184;-84
2022/11/20 02:16:36;;;;;;;3.20;2.90;;;-3.70;99.90;;;;;;5044261;28;20038;-84
2022/11/20 02:19:06;;;;;;;2.35;2.15;;;-3.70;99.90;;;;;;5042108;28;20468;-85
2022/11/20 02:22:04;;;;;;;2.40;2.20;;;-3.70;99.90;;;;;;5048975;28;20396;-85
2022/11/20 02:24:30;;;;;;;3.30;2.60;;;-3.60;99.90;;;;;;5036657;28;20051;-84
2022/11/20 02:27:04;;;;;;;3.95;2.47;;;-3.60;99.90;;;;;;5034669;28;20373;-85
2022/11/20 02:29:39;;;;;;;3.42;2.53;;;-3.70;99.90;;;;;;5038417;28;20394;-82
2022/11/20 02:32:05;;;;;;;3.10;2.80;;;-3.70;99.90;;;;;;5042531;28;20380;-82
2022/11/20 02:34:31;;;;;;;2.40;2.20;;;-3.60;99.90;;;;;;5044511;28;20067;-84
2022/11/20 02:36:59;;;;;;;2.70;2.50;;;-3.70;99.90;;;;;;5043854;28;20029;-81
2022/11/20 02:39:28;;;;;;;11.77;2.47;;;-3.70;99.90;;;;;;5042516;28;20032;-85
2022/11/20 02:41:55;;;;;;;6.53;2.35;;;-3.60;99.90;;;;;;5030401;28;20037;-85
2022/11/20 02:44:21;;;;;;;2.78;2.58;;;-3.60;99.90;;;;;;5046346;28;20488;-84
2022/11/20 02:46:46;;;;;;;2.42;2.22;;;-3.60;99.90;;;;;;5042710;28;20025;-85
2022/11/20 02:49:12;;;;;;;2.63;2.42;;;-3.60;99.90;;;;;;5043748;28;20016;-85
2022/11/20 02:51:37;;;;;;;2.55;2.42;;;-3.60;99.90;;;;;;5041950;28;20454;-84
2022/11/20 02:54:03;;;;;;;2.67;2.22;;;-3.70;99.90;;;;;;5040033;28;20106;-85
2022/11/20 02:56:29;;;;;;;3.47;2.58;;;-3.70;99.90;;;;;;5045084;28;20066;-84
2022/11/20 02:58:55;;;;;;;2.97;2.70;;;-3.70;99.90;;;;;;5041515;28;20020;-82
2022/11/20 03:01:21;;;;;;;2.63;2.25;;;-3.80;99.90;;;;;;5044985;28;20104;-84
2022/11/20 03:03:48;;;;;;;2.60;2.40;;;-3.80;99.90;;;;;;5047009;28;20020;-85
2022/11/20 03:06:15;;;;;;;5.25;2.35;;;-3.90;99.90;;;;;;5038228;28;20033;-84
2022/11/20 03:08:40;;;;;;;3.15;2.42;;;-3.90;99.90;;;;;;5040408;28;20040;-84
2022/11/20 03:11:08;;;;;;;3.22;2.70;;;-3.90;99.90;;;;;;5034262;28;20029;-84
2022/11/20 03:13:35;;;;;;;2.20;2.10;;;-3.90;99.90;;;;;;5044726;28;20025;-84
2022/11/20 03:16:12;;;;;;;2.63;2.42;;;-3.90;99.90;;;;;;5039663;28;20052;-85
2022/11/20 03:18:39;;;;;;;4.32;2.30;;;-3.90;99.90;;;;;;5038309;28;20039;-84
2022/11/20 03:21:05;;;;;;;2.90;2.40;;;-3.90;99.90;;;;;;5046445;28;20056;-81
2022/11/20 03:23:32;;;;;;;3.80;2.60;;;-3.90;99.90;;;;;;5043407;28;20035;-84
2022/11/20 03:26:27;;;;;;;2.70;2.50;;;-3.90;99.90;;;;;;5041000;28;20029;-84
2022/11/20 03:28:55;;;;;;;2.53;2.30;;;-4.00;99.90;;;;;;5035029;28;20041;-84
2022/11/20 03:31:41;;;;;;;6.50;2.47;;;-4.00;99.90;;;;;;5043346;28;20485;-85
2022/11/20 03:34:08;;;;;;;3.05;2.83;;;-3.90;99.90;;;;;;5042273;28;20025;-85
2022/11/20 03:36:34;;;;;;;2.80;2.50;;;-3.90;99.90;;;;;;5043871;28;20037;-84
2022/11/20 03:39:00;;;;;;;2.47;2.28;;;-3.90;99.90;;;;;;5039675;28;20025;-85
2022/11/20 03:41:28;;;;;;;5.20;2.72;;;-3.90;99.90;;;;;;5033191;28;20025;-84
2022/11/20 03:43:56;;;;;;;4.63;2.70;;;-3.80;99.90;;;;;;5037246;28;20021;-84
2022/11/20 03:46:22;;;;;;;2.75;2.55;;;-3.80;99.90;;;;;;5036319;28;20055;-84
2022/11/20 03:48:49;;;;;;;3.10;2.47;;;-3.80;99.90;;;;;;5040466;28;20024;-85
2022/11/20 03:51:18;;;;;;;4.47;2.53;;;-3.80;99.90;;;;;;5034678;28;20041;-84
2022/11/20 03:53:45;;;;;;;2.60;2.40;;;-3.80;99.90;;;;;;5036583;28;20032;-85
2022/11/20 03:56:13;;;;;;;5.63;2.40;;;-3.80;99.90;;;;;;5036598;28;20040;-84
2022/11/20 03:58:40;;;;;;;2.53;2.40;;;-3.80;99.90;;;;;;5029741;28;20446;-84
2022/11/20 04:01:16;;;;;;;2.17;2.08;;;-3.80;99.90;;;;;;5036542;28;20025;-85
2022/11/20 04:03:43;;;;;;;2.50;2.30;;;-3.80;99.90;;;;;;5031705;28;20458;-85
2022/11/20 04:06:18;;;;;;;2.40;2.17;;;-3.80;99.90;;;;;;5042644;28;20146;-85
2022/11/20 04:08:43;;;;;;;2.70;2.40;;;-3.90;99.90;;;;;;5033642;28;20033;-85
2022/11/20 04:11:19;;;;;;;2.60;2.40;;;-3.90;99.90;;;;;;5042673;28;20032;-84
2022/11/20 04:14:12;;;;;;;3.50;2.83;;;-4.00;99.90;;;;;;5031478;28;20347;-84
2022/11/20 04:16:38;;;;;;;1.90;1.80;;;-4.00;99.90;;;;;;5042208;28;20055;-84
2022/11/20 04:19:09;;;;;;;2.95;2.42;;;-4.00;99.90;;;;;;5037709;28;20025;-84
2022/11/20 04:21:34;;;;;;;2.00;1.90;;;-4.00;99.90;;;;;;5028289;28;20524;-84
2022/11/20 04:24:00;;;;;;;2.50;2.30;;;-4.00;99.90;;;;;;5033034;28;20033;-84
2022/11/20 04:26:27;;;;;;;2.50;2.30;;;-4.00;99.90;;;;;;5033631;28;20276;-84
2022/11/20 04:28:54;;;;;;;2.45;2.25;;;-4.00;99.90;;;;;;5031425;28;20021;-83
2022/11/20 04:31:26;;;;;;;2.55;2.35;;;-3.90;99.90;;;;;;5032682;28;20045;-84
2022/11/20 04:33:52;;;;;;;2.05;1.90;;;-3.90;99.90;;;;;;5031208;28;20108;-84
2022/11/20 04:36:24;;;;;;;2.78;2.30;;;-3.90;99.90;;;;;;5042044;28;20027;-84
2022/11/20 04:38:58;;;;;;;2.53;2.22;;;-4.00;99.90;;;;;;5034473;28;20080;-84
2022/11/20 04:41:26;;;;;;;2.70;2.00;;;-3.90;99.90;;;;;;5026952;28;20037;-84
2022/11/20 04:43:58;;;;;;;1.92;1.83;;;-3.90;99.90;;;;;;5040672;28;20088;-85
2022/11/20 04:46:25;;;;;;;2.08;1.98;;;-3.90;99.90;;;;;;5037357;28;20047;-84
2022/11/20 04:48:51;;;;;;;4.10;2.22;;;-3.90;99.90;;;;;;5031807;28;20033;-84
2022/11/20 04:51:16;;;;;;;2.10;2.00;;;-4.00;99.90;;;;;;5033635;28;20070;-84
2022/11/20 04:53:42;;;;;;;2.33;2.13;;;-4.00;99.90;;;;;;5033956;28;20024;-84
2022/11/20 04:56:10;;;;;;;2.15;1.90;;;-4.00;99.90;;;;;;5038342;28;20098;-84
2022/11/20 04:58:38;;;;;;;2.28;2.08;;;-3.90;99.90;;;;;;5036852;28;20032;-83
2022/11/20 05:01:11;;;;;;;2.08;1.98;;;-4.10;99.90;;;;;;5037445;28;20531;-84
2022/11/20 05:03:37;;;;;;;2.88;1.98;;;-4.10;99.90;;;;;;5037809;28;20033;-83
2022/11/20 05:06:04;;;;;;;3.25;1.88;;;-4.10;99.90;;;;;;5033009;28;20018;-84
2022/11/20 05:08:32;;;;;;;2.00;1.90;;;-4.10;99.90;;;;;;5039924;28;20461;-83
2022/11/20 05:11:07;;;;;;;2.85;2.55;;;-4.10;99.90;;;;;;5040133;28;20130;-84
2022/11/20 05:13:33;;;;;;;2.78;2.45;;;-4.10;99.90;;;;;;5041973;28;20055;-83
2022/11/20 05:16:03;;;;;;;2.53;2.33;;;-4.10;99.90;;;;;;5035602;28;20517;-84
2022/11/20 05:18:29;;;;;;;2.35;2.05;;;-4.10;99.90;;;;;;5036733;28;20516;-84
2022/11/20 05:20:56;;;;;;;2.20;2.10;;;-4.10;99.90;;;;;;5032455;28;20029;-84
2022/11/20 05:23:22;;;;;;;2.17;2.03;;;-4.10;99.90;;;;;;5038922;28;20456;-84
2022/11/20 05:25:47;;;;;;;2.35;2.15;;;-4.20;99.90;;;;;;5042793;28;20021;-83
2022/11/20 05:28:13;;;;;;;5.80;2.42;;;-4.10;99.90;;;;;;5033520;28;20018;-84
2022/11/20 05:30:39;;;;;;;2.00;1.80;;;-4.10;99.90;;;;;;5040215;28;20069;-83
2022/11/20 05:33:05;;;;;;;3.40;2.15;;;-4.10;99.90;;;;;;5036900;28;20429;-82
2022/11/20 05:35:30;;;;;;;2.00;1.90;;;-4.20;99.90;;;;;;5034737;28;20121;-83
2022/11/20 05:37:56;;;;;;;2.22;2.08;;;-4.10;99.90;;;;;;5034304;28;20027;-84
2022/11/20 05:40:21;;;;;;;2.05;1.95;;;-4.10;99.90;;;;;;5039268;28;20067;-84
2022/11/20 05:42:48;;;;;;;1.98;1.77;;;-4.10;99.90;;;;;;5036427;28;20056;-84
2022/11/20 05:45:13;;;;;;;1.88;1.77;;;-4.10;99.90;;;;;;5035669;28;20076;-84
2022/11/20 05:47:39;;;;;;;3.10;2.33;;;-4.10;99.90;;;;;;5036965;28;20087;-83
2022/11/20 05:50:05;;;;;;;2.30;2.10;;;-4.10;99.90;;;;;;5040521;28;20033;-84
2022/11/20 05:52:30;;;;;;;2.15;1.95;;;-4.20;99.90;;;;;;5035055;28;20524;-83
2022/11/20 05:54:57;;;;;;;1.90;1.80;;;-4.20;99.90;;;;;;5035948;28;20087;-84
2022/11/20 05:57:23;;;;;;;2.20;2.00;;;-4.20;99.90;;;;;;5034666;28;20033;-84
2022/11/20 05:59:48;;;;;;;2.05;1.95;;;-4.20;99.90;;;;;;5033168;28;20017;-83
2022/11/20 06:02:14;;;;;;;1.98;1.88;;;-4.20;99.90;;;;;;5037628;28;20022;-83
2022/11/20 06:04:39;;;;;;;1.98;1.88;;;-4.30;99.90;;;;;;5042973;28;20108;-83
2022/11/20 06:07:06;;;;;;;2.17;1.98;;;-4.30;99.90;;;;;;5038950;28;20032;-84
2022/11/20 06:09:32;;;;;;;2.00;1.90;;;-4.30;99.90;;;;;;5025076;28;20022;-84
2022/11/20 06:11:57;;;;;;;2.47;2.28;;;-4.30;99.90;;;;;;5031095;28;20099;-84
2022/11/20 06:14:23;;;;;;;3.75;2.10;;;-4.30;99.90;;;;;;5044285;28;20112;-84
2022/11/20 06:16:49;;;;;;;2.00;1.90;;;-4.30;99.90;;;;;;5041192;28;20021;-83
2022/11/20 06:19:15;;;;;;;2.38;2.17;;;-4.30;99.90;;;;;;5033036;28;20024;-84
2022/11/20 06:21:42;;;;;;;2.83;1.92;;;-4.30;99.90;;;;;;5038106;28;20068;-83
2022/11/20 06:24:10;;;;;;;1.90;1.80;;;-4.30;99.90;;;;;;5039243;28;20100;-83
2022/11/20 06:26:36;;;;;;;4.78;2.20;;;-4.30;99.90;;;;;;5040068;28;20108;-82
2022/11/20 06:29:02;;;;;;;1.80;1.70;;;-4.30;99.90;;;;;;5038170;28;20144;-84
2022/11/20 06:31:28;;;;;;;1.98;1.88;;;-4.30;99.90;;;;;;5031474;28;20083;-81
2022/11/20 06:33:54;;;;;;;2.25;2.05;;;-4.30;99.90;;;;;;5042509;28;20033;-83
2022/11/20 06:36:22;;;;;;;1.95;1.85;;;-4.30;99.90;;;;;;5030151;28;20176;-83
2022/11/20 06:38:48;;;;;;;1.92;1.83;;;-4.30;99.90;;;;;;5035247;28;20052;-88
2022/11/20 06:51:28;;;;;;;2.70;2.28;;;-4.30;99.90;;;;;;4420147;22;20230;-86
2022/11/20 06:53:54;;;;;;;4.68;2.00;;;-4.20;99.90;;;;;;5018792;28;20389;-92
2022/11/20 06:56:20;;;;;;;2.25;1.80;;;-4.20;99.90;;;;;;5026662;28;20033;-94
2022/11/20 07:02:11;;;;;;;2.15;2.00;;;-4.20;99.90;;;;;;5021863;28;20032;-91
2022/11/20 07:04:38;;;;;;;2.17;1.95;;;-4.20;99.90;;;;;;5030925;28;20032;-91
2022/11/20 07:07:16;;;;;;;2.30;1.98;;;-4.20;99.90;;;;;;5028304;28;20037;-90
2022/11/20 07:09:45;;;;;;;2.03;1.92;;;-4.20;99.90;;;;;;5031208;28;20792;-91
2022/11/20 07:19:30;;;;;;;2.58;2.38;;;-4.10;99.90;;;;;;4961502;22;20488;-83
2022/11/20 07:21:55;;;;;;;2.10;2.00;;;-4.10;99.90;;;;;;5040658;28;20082;-83
2022/11/20 07:27:45;;;;;;;2.00;1.90;;;-4.20;99.90;;;;;;5044540;28;20052;-81
2022/11/20 07:30:11;;;;;;;2.60;1.75;;;-4.20;99.90;;;;;;5046356;28;20094;-84
2022/11/20 07:33:01;;;;;;;3.05;2.42;;;-4.20;99.90;;;;;;5043027;28;20033;-84
2022/11/20 07:35:27;;;;;;;1.95;1.85;;;-4.20;99.90;;;;;;5041045;28;20264;-82
2022/11/20 07:37:53;;;;;;;1.88;1.77;;;-4.20;99.90;;;;;;5047297;28;20032;-84
2022/11/20 07:40:19;;;;;;;2.42;2.22;;;-4.20;99.90;;;;;;5046015;28;20355;-84
2022/11/20 07:42:53;;;;;;;2.90;2.58;;;-4.20;99.90;;;;;;5034317;28;20365;-84
2022/11/20 07:45:20;;;;;;;3.78;3.45;;;-4.20;99.90;;;;;;5043754;28;20024;-84
2022/11/20 07:47:46;;;;;;;3.35;3.10;;;-4.10;99.90;;;;;;5037510;28;20033;-84
2022/11/20 07:50:12;;;;;;;4.28;3.45;;;-4.10;99.90;;;;;;5045157;28;20029;-83
2022/11/20 07:52:41;;;;;;;5.28;2.85;;;-4.10;99.90;;;;;;5042844;28;20719;-81
2022/11/20 08:01:07;;;;;;;3.42;2.90;;;-3.90;99.90;;;;;;5010191;23;20073;-92
2022/11/20 08:03:57;;;;;;;2.40;2.20;;;-3.90;99.90;;;;;;4989038;28;20030;-91
2022/11/20 08:06:24;;;;;;;2.67;2.47;;;-3.80;99.90;;;;;;5001124;28;20033;-92
2022/11/20 08:08:50;;;;;;;2.85;2.30;;;-3.70;99.90;;;;;;4999999;28;20501;-92
2022/11/20 08:14:12;;;;;;;2.15;2.05;;;-3.60;99.90;;;;;;4997671;28;20029;-91
2022/11/20 08:16:47;;;;;;;2.33;2.20;;;-3.60;99.90;;;;;;5003548;28;20056;-92
2022/11/20 08:19:15;;;;;;;2.15;1.95;;;-3.60;99.90;;;;;;5000796;28;20285;-91
2022/11/20 08:21:41;;;;;;;1.88;1.77;;;-3.50;99.90;;;;;;5002852;28;20387;-91
2022/11/20 08:24:07;;;;;;;2.63;1.75;;;-3.50;99.90;;;;;;5000778;28;20026;-91
2022/11/20 08:26:34;;;;;;;2.00;1.90;;;-3.40;99.90;;;;;;5002638;28;20383;-91
2022/11/20 08:29:00;;;;;;;1.92;1.83;;;-3.40;99.90;;;;;;5006437;28;20010;-92
2022/11/20 08:31:27;;;;;;;1.73;1.60;;;-3.30;99.90;;;;;;4996679;28;20038;-92
2022/11/20 08:33:53;;;;;;;1.80;1.70;;;-3.20;99.90;;;;;;4995284;28;20025;-92
2022/11/20 08:36:19;;;;;;;2.33;1.80;;;-3.20;99.90;;;;;;4983476;28;20062;-91
2022/11/20 08:38:53;;;;;;;2.00;1.90;;;-3.10;99.90;;;;;;5004161;28;20072;-87
2022/11/20 08:41:26;;;;;;;1.90;1.80;;;-3.00;99.90;;;;;;5001072;28;20030;-90
2022/11/20 08:43:58;;;;;;;1.67;1.63;;;-2.90;99.90;;;;;;5003418;28;20018;-92
2022/11/20 08:46:37;;;;;;;4.03;1.90;;;-2.90;99.90;;;;;;5002312;28;20026;-93
2022/11/20 08:49:04;;;;;;;1.83;1.73;;;-2.80;99.90;;;;;;5003041;28;20026;-90
2022/11/20 08:51:30;;;;;;;1.70;1.60;;;-2.80;99.90;;;;;;4986164;28;20077;-90
2022/11/20 08:53:55;;;;;;;1.88;1.77;;;-2.70;99.90;;;;;;4999822;28;20606;-90
2022/11/20 08:56:21;;;;;;;1.95;1.70;;;-2.60;99.90;;;;;;5005368;28;20025;-91
2022/11/20 08:58:46;;;;;;;3.70;1.60;;;-2.60;99.90;;;;;;4979055;28;20026;-89
2022/11/20 09:01:12;;;;;;;1.98;1.88;;;-2.50;99.90;;;;;;5000090;28;20478;-90
2022/11/20 09:03:38;;;;;;;144.60;49.38;;;-2.50;99.90;;;;;;5006839;28;20028;-90
2022/11/20 09:06:06;;;;;;;22.80;13.38;;;-2.30;99.90;;;;;;5000454;28;20032;-89
2022/11/20 09:08:32;;;;;;;6.47;4.65;;;-2.20;99.90;;;;;;5000941;28;20112;-88
2022/11/20 09:10:59;;;;;;;3.53;3.22;;;-1.90;99.90;;;;;;5000776;28;20034;-89
2022/11/20 09:13:30;;;;;;;2.97;2.67;;;-1.70;99.90;;;;;;5003065;28;20029;-92
2022/11/20 09:16:04;;;;;;;3.50;2.42;;;-1.50;99.90;;;;;;4987922;28;20030;-87
2022/11/20 09:18:35;;;;;;;3.20;2.47;;;-1.40;99.90;;;;;;5001898;28;20014;-87
2022/11/20 09:21:04;;;;;;;1.90;1.80;;;-1.20;99.90;;;;;;5003717;28;20028;-87
2022/11/20 09:23:35;;;;;;;2.20;2.00;;;-0.90;99.90;;;;;;5001053;28;20014;-86
2022/11/20 09:26:11;;;;;;;2.22;2.03;;;-0.70;99.90;;;;;;5001669;28;20033;-87
2022/11/20 09:28:38;;;;;;;4.95;1.85;;;-0.80;99.90;;;;;;4984440;28;20030;-86
2022/11/20 09:31:21;;;;;;;2.33;2.10;;;-0.80;99.90;;;;;;5002146;28;20541;-86
2022/11/20 09:33:48;;;;;;;2.15;1.95;;;-0.80;99.90;;;;;;5003063;28;20046;-85
2022/11/20 09:36:14;;;;;;;3.63;2.05;;;-0.90;99.90;;;;;;4998199;28;20073;-88
2022/11/20 09:38:42;;;;;;;3.22;2.00;;;-0.80;99.90;;;;;;4999834;28;20025;-89
2022/11/20 09:41:30;;;;;;;2.03;1.85;;;-0.80;99.90;;;;;;4997128;28;20013;-86
2022/11/20 09:44:04;;;;;;;4.15;1.77;;;-0.70;99.90;;;;;;5002562;28;20022;-85
2022/11/20 09:46:49;;;;;;;2.90;1.80;;;-0.60;99.90;;;;;;5000184;28;20060;-85
2022/11/20 09:49:48;;;;;;;1.95;1.80;;;-0.50;99.90;;;;;;5000659;28;20046;-85
2022/11/20 09:52:41;;;;;;;4.57;2.70;;;-0.40;99.90;;;;;;5002077;28;20096;-85
2022/11/20 09:55:11;;;;;;;2.25;2.05;;;-0.40;99.90;;;;;;4999146;28;20030;-88
2022/11/20 09:57:40;;;;;;;5.18;2.70;;;-0.20;99.90;;;;;;5004110;28;20120;-87
2022/11/20 10:00:11;;;;;;;3.08;1.95;;;-0.20;99.90;;;;;;4998604;28;20434;-86
2022/11/20 10:02:51;;;;;;;1.70;1.60;;;-0.10;99.90;;;;;;4984731;28;20021;-86
2022/11/20 10:05:41;;;;;;;1.88;1.77;;;0.00;99.90;;;;;;4977394;28;20050;-85
2022/11/20 10:08:22;;;;;;;3.47;1.88;;;0.10;99.90;;;;;;4996354;28;20052;-87
2022/11/20 10:11:16;;;;;;;2.22;2.03;;;0.10;99.90;;;;;;4998663;28;20030;-86
2022/11/20 10:14:00;;;;;;;3.03;2.55;;;0.10;99.90;;;;;;4998330;28;20022;-87
2022/11/20 10:16:54;;;;;;;1.40;1.40;;;0.20;99.90;;;;;;5000933;28;20064;-87
2022/11/20 10:19:37;;;;;;;7.22;1.50;;;0.30;99.90;;;;;;5004199;28;20030;-86
2022/11/20 10:22:14;;;;;;;1.42;1.35;;;0.60;99.90;;;;;;5003759;28;20482;-87
2022/11/20 10:24:49;;;;;;;1.70;1.60;;;0.70;99.90;;;;;;4995303;28;20042;-87
2022/11/20 10:27:23;;;;;;;2.17;1.40;;;0.80;99.90;;;;;;4999903;28;20026;-86
2022/11/20 10:30:00;;;;;;;1.73;1.63;;;0.90;99.90;;;;;;5003843;28;20028;-87
2022/11/20 10:32:35;;;;;;;1.65;1.55;;;0.90;99.90;;;;;;4996956;28;20077;-87
2022/11/20 10:35:08;;;;;;;12.95;1.42;;;1.00;99.90;;;;;;5006398;28;20482;-88
2022/11/20 10:37:40;;;;;;;3.30;1.80;;;1.00;99.90;;;;;;5007478;28;20018;-91
2022/11/20 10:40:25;;;;;;;3.60;1.98;;;1.00;99.90;;;;;;4999659;28;20104;-89
2022/11/20 10:43:01;;;;;;;1.60;1.50;;;1.10;99.90;;;;;;4993468;28;20179;-88
2022/11/20 10:45:27;;;;;;;1.50;1.40;;;1.20;99.90;;;;;;5008470;28;20028;-89
2022/11/20 10:48:14;;;;;;;1.75;1.65;;;1.20;99.90;;;;;;5005709;28;20113;-89
2022/11/20 10:50:53;;;;;;;1.50;1.40;;;1.20;99.90;;;;;;5008738;28;20033;-92
2022/11/20 10:53:41;;;;;;;1.80;1.70;;;1.20;99.90;;;;;;4999837;28;20029;-90
2022/11/20 10:56:31;;;;;;;2.88;1.90;;;1.30;99.90;;;;;;5002628;28;20098;-91
2022/11/20 10:59:34;;;;;;;3.42;1.80;;;1.30;99.90;;;;;;4996003;28;20042;-90
2022/11/20 11:01:59;;;;;;;2.38;1.95;;;1.30;99.90;;;;;;4988259;28;20038;-90
2022/11/20 11:04:28;;;;;;;7.55;2.60;;;1.30;99.90;;;;;;5006332;28;20379;-92
2022/11/20 11:07:00;;;;;;;3.45;2.58;;;1.30;99.90;;;;;;5000309;28;20088;-91
2022/11/20 11:09:37;;;;;;;5.53;3.17;;;1.30;99.90;;;;;;5004068;28;20034;-91
2022/11/20 11:12:08;;;;;;;5.15;3.83;;;1.30;99.90;;;;;;5001646;28;20494;-91
2022/11/20 11:14:43;;;;;;;6.85;4.78;;;1.20;99.90;;;;;;5006917;28;20180;-91
2022/11/20 11:17:32;;;;;;;6.57;4.25;;;1.20;99.90;;;;;;5003475;28;20061;-92
2022/11/20 11:20:19;;;;;;;6.70;4.78;;;1.30;99.90;;;;;;4990009;28;20045;-94
2022/11/20 11:22:49;;;;;;;7.93;5.05;;;1.30;99.90;;;;;;5009713;28;20029;-91
2022/11/20 11:25:23;;;;;;;9.32;5.43;;;1.30;99.90;;;;;;5007699;28;20014;-92
2022/11/20 11:27:49;;;;;;;6.18;4.63;;;1.30;99.90;;;;;;5004696;28;20056;-92
2022/11/20 11:30:17;;;;;;;6.50;4.40;;;1.30;99.90;;;;;;5002719;28;20096;-92
2022/11/20 11:32:43;;;;;;;6.28;4.53;;;1.30;99.90;;;;;;5003409;28;20066;-92
2022/11/20 11:35:28;;;;;;;7.50;5.18;;;1.30;99.90;;;;;;4998755;28;20014;-93
2022/11/20 11:38:09;;;;;;;9.55;5.68;;;1.40;99.90;;;;;;5008456;28;20026;-91
2022/11/20 11:40:39;;;;;;;7.22;4.40;;;1.30;99.90;;;;;;5003152;28;20041;-94
2022/11/20 11:45:04;;;;;;;7.70;5.38;;;1.30;99.90;;;;;;5005281;28;20069;-94
2022/11/20 11:46:02;;;;;;;18.52;6.22;;;1.30;99.90;;;;;;5005398;28;20506;-93
2022/11/20 11:48:28;;;;;;;18.38;7.45;;;1.40;99.90;;;;;;4999342;28;20036;-93
2022/11/20 11:50:53;;;;;;;10.95;4.40;;;1.40;99.90;;;;;;4986636;28;20479;-93
2022/11/20 11:53:23;;;;;;;4.65;3.08;;;1.50;99.90;;;;;;5001201;28;20388;-93
2022/11/20 11:56:24;;;;;;;4.13;3.00;;;1.60;99.90;;;;;;5000278;28;20026;-91
2022/11/20 11:58:58;;;;;;;3.38;2.42;;;1.80;99.90;;;;;;4943786;29;20053;-90
2022/11/20 12:01:48;;;;;;;3.83;2.22;;;1.90;99.90;;;;;;4981235;28;20471;-92
2022/11/20 12:04:25;;;;;;;2.50;2.15;;;1.90;99.90;;;;;;4985740;28;20022;-90
2022/11/20 12:06:58;;;;;;;4.38;2.60;;;1.90;99.90;;;;;;4979548;28;20030;-92
2022/11/20 12:09:30;;;;;;;3.50;2.38;;;1.80;99.90;;;;;;4989265;28;20038;-93
2022/11/20 12:12:15;;;;;;;2.88;2.38;;;1.80;99.90;;;;;;5006549;28;20069;-94
2022/11/20 12:14:45;;;;;;;3.45;2.53;;;1.70;99.90;;;;;;5007673;28;20010;-93
2022/11/20 12:17:13;;;;;;;5.95;3.05;;;1.70;99.90;;;;;;5001126;28;20573;-91
2022/11/20 12:19:39;;;;;;;3.53;2.78;;;1.70;99.90;;;;;;5000457;28;20026;-94
2022/11/20 12:22:13;;;;;;;3.63;2.17;;;1.60;99.90;;;;;;4997226;28;20047;-90
2022/11/20 12:24:50;;;;;;;5.18;2.50;;;1.60;99.90;;;;;;4997584;28;20030;-92
2022/11/20 12:27:47;;;;;;;2.60;2.40;;;1.70;99.90;;;;;;5004584;28;20026;-89
2022/11/20 12:30:18;;;;;;;3.22;2.30;;;1.80;99.90;;;;;;4998040;28;20120;-83
2022/11/20 12:32:55;;;;;;;4.00;2.60;;;1.80;99.90;;;;;;5005644;28;20044;-83
2022/11/20 12:35:47;;;;;;;4.97;2.60;;;1.90;99.90;;;;;;4993300;28;20027;-84
2022/11/20 12:38:48;;;;;;;1.77;1.67;;;2.10;99.90;;;;;;4988239;28;20037;-84
2022/11/20 12:45:11;;;;;;;1.52;1.42;;;2.10;99.90;;;;;;5008386;28;20036;-83
2022/11/20 12:48:21;;;;;;;1.88;1.77;;;2.30;99.90;;;;;;5006875;28;20034;-83
2022/11/20 12:51:21;;;;;;;2.88;2.00;;;2.20;99.90;;;;;;4970414;28;20496;-83
2022/11/20 12:54:01;;;;;;;3.42;1.60;;;2.30;99.90;;;;;;5008173;28;20018;-84
2022/11/20 12:56:44;;;;;;;1.75;1.60;;;2.30;99.90;;;;;;4999068;28;20029;-83
2022/11/20 12:59:47;;;;;;;6.65;2.28;;;2.30;99.90;;;;;;4991861;28;20050;-83
2022/11/20 13:03:07;;;;;;;2.10;1.90;;;2.30;99.90;;;;;;5001935;28;20022;-83
2022/11/20 13:06:04;;;;;;;2.08;1.83;;;2.30;99.90;;;;;;4915054;29;20027;-83
2022/11/20 13:08:35;;;;;;;3.78;2.65;;;2.40;99.90;;;;;;5002361;28;20037;-82
2022/11/20 13:11:31;;;;;;;2.53;2.13;;;2.40;99.90;;;;;;5001889;28;20526;-82
2022/11/20 13:14:23;;;;;;;3.47;2.10;;;2.40;99.90;;;;;;4991316;28;20125;-83
2022/11/20 13:17:05;;;;;;;5.63;2.28;;;2.40;99.90;;;;;;5002978;28;20026;-83
2022/11/20 13:19:31;;;;;;;2.90;2.22;;;2.40;99.90;;;;;;5002108;28;20064;-83
2022/11/20 13:21:57;;;;;;;2.72;2.15;;;2.30;99.90;;;;;;4999885;28;20082;-83
2022/11/20 13:24:26;;;;;;;2.95;2.00;;;2.30;99.90;;;;;;4985984;28;20057;-83
2022/11/20 13:27:14;;;;;;;2.55;2.10;;;2.40;99.90;;;;;;4993926;28;20469;-83
2022/11/20 13:29:44;;;;;;;4.25;2.53;;;2.30;99.90;;;;;;4993961;28;20029;-82
2022/11/20 13:32:17;;;;;;;6.75;3.30;;;2.30;99.90;;;;;;4994048;28;20100;-82
2022/11/20 13:34:54;;;;;;;9.18;4.10;;;2.20;99.90;;;;;;5001750;28;20033;-83
2022/11/20 13:37:37;;;;;;;8.63;3.30;;;2.10;99.90;;;;;;4997457;28;20030;-83
2022/11/20 13:40:10;;;;;;;5.78;3.97;;;2.10;99.90;;;;;;5003298;28;20030;-83
2022/11/20 13:42:39;;;;;;;5.60;4.15;;;2.10;99.90;;;;;;5001274;28;20382;-82
2022/11/20 13:45:27;;;;;;;10.43;4.47;;;2.00;99.90;;;;;;4995872;28;20057;-83
2022/11/20 13:47:54;;;;;;;5.82;4.03;;;1.90;99.90;;;;;;4995310;28;20026;-82